Flight Track Log - Related Links

Times and Time Zones

All times are in EDT time to prevent confusion due to time zone crossing. See the SWA2315 flight status page for this flight to view local times or setup timezone preferences in your user account.

Time Position Orientation Groundspeed Altitude Reporting Facility
EDT Latitude Longitude Course Direction KTS MPH feet Rate Location/Type
Sat 10:42:12 PM 39.8650 -104.6810 258° West 19 22  Level FlightAware ADS-B
Sat 10:42:40 PM 39.8640 -104.6830 237° Southwest 18 21 1,086 Level FlightAware ADS-B
Sat 10:43:22 PM 39.8630 -104.6850 237° Southwest 21 24 1,178 Level FlightAware ADS-B
Sat 10:43:49 PM 39.8600 -104.6850 180° South 21 24 1,349 Level FlightAware ADS-B
Sat 10:44:18 PM 39.8570 -104.6850 180° South 24 28 1,489 Level FlightAware ADS-B
Sat 10:44:46 PM 39.8540 -104.6850 180° South 25 29 1,674 Level FlightAware ADS-B
Sat 10:44:58 PM 39.8520 -104.6850 180° South 19 22 1,902 Level FlightAware ADS-B
Sat 10:45:27 PM 39.8500 -104.6840 159° South 22 25 2,021 Level FlightAware ADS-B
Sat 10:45:51 PM 39.8470 -104.6840 180° South 27 31 2,378 Level FlightAware ADS-B
Sat 10:46:17 PM 39.8450 -104.6840 180° South 27 31 2,786 Level FlightAware ADS-B
Sat 10:48:11 PM 39.8410 -104.7420 265° West 185 213 6,500 3,041 Climbing FlightAware ADS-B
Sat 10:48:45 PM 39.8350 -104.7830 259° West 228 262 7,500 2,200 Climbing FlightAware ADS-B
Sat 10:49:11 PM 39.8270 -104.8190 254° West 243 280 8,700 2,357 Climbing FlightAware ADS-B
Sat 10:49:41 PM 39.8150 -104.8630 250° West 276 318 9,700 1,714 Climbing FlightAware ADS-B
Sat 10:49:53 PM 39.8040 -104.8780 226° Southwest 294 338 9,900 1,250 Climbing FlightAware ADS-B
Sat 10:50:05 PM 39.7890 -104.8850 200° South 310 357 10,200 2,250 Climbing FlightAware ADS-B
Sat 10:50:49 PM 39.7230 -104.9030 192° South 342 394 12,000 2,523 Climbing FlightAware ADS-B
Sat 10:51:33 PM 39.6510 -104.9220 191° South 369 425 13,900 2,214 Climbing FlightAware ADS-B
Sat 10:52:13 PM 39.5820 -104.9420 193° South 406 467 15,100 2,188 Climbing FlightAware ADS-B
Sat 10:52:58 PM 39.4980 -104.9640 191° South 426 490 17,000 2,259 Climbing FlightAware ADS-B
Sat 10:53:38 PM 39.4180 -104.9850 191° South 449 517 18,300 2,000 Climbing FlightAware ADS-B
Sat 10:54:19 PM 39.3310 -105.0090 192° South 468 539 19,700 2,222 Climbing FlightAware ADS-B
Sat 10:54:59 PM 39.2450 -105.0320 192° South 476 548 21,300 2,313 Climbing FlightAware ADS-B
Sat 10:55:42 PM 39.1550 -105.0600 194° South 477 549 22,900 2,114 Climbing FlightAware ADS-B
Sat 10:56:27 PM 39.0620 -105.1130 204° Southwest 474 545 24,400 1,929 Climbing FlightAware ADS-B
Sat 10:57:06 PM 38.9890 -105.1600 207° Southwest 480 552 25,600 1,624 Climbing FlightAware ADS-B
Sat 10:57:52 PM 38.8950 -105.2200 206° Southwest 493 567 26,700 1,744 Climbing FlightAware ADS-B
Sat 10:58:32 PM 38.8120 -105.2730 206° Southwest 490 564 28,100 2,096 Climbing FlightAware ADS-B
Sat 10:59:15 PM 38.7300 -105.3370 211° Southwest 480 552 29,600 1,248 Climbing FlightAware ADS-B
Sat 11:00:13 PM 38.6460 -105.4340 222° Southwest 478 550 30,200 379 Climbing FlightAware ADS-B
Sat 11:00:50 PM 38.5940 -105.4930 222° Southwest 478 550 30,200  Level FlightAware ADS-B
Sat 11:01:26 PM 38.5440 -105.5510 222° Southwest 478 550 30,200 3,688 Level FlightAware ADS-B
Sat 11:02:26 PM 38.4260 -105.6850 222° Southwest 444 511 36,100 4,000 Climbing FlightAware ADS-B
Sat 11:03:11 PM 38.3590 -105.7620 222° Southwest 441 507 37,200 1,350 Climbing FlightAware ADS-B
Sat 11:03:46 PM 38.3280 -105.7960 221° Southwest 441 507 37,900 565 Climbing FlightAware ADS-B
Sat 11:04:36 PM 38.2310 -105.9070 222° Southwest 442 509 38,000 333 Climbing FlightAware ADS-B
Sat 11:05:16 PM 38.1670 -105.9800 222° Southwest 445 512 38,400 750 Climbing FlightAware ADS-B
Sat 11:05:56 PM 38.1050 -106.0490 221° Southwest 447 514 39,000 907 Climbing FlightAware ADS-B
Sat 11:06:42 PM 38.0330 -106.1290 221° Southwest 446 513 39,700 698 Climbing FlightAware ADS-B
Sat 11:07:22 PM 37.9720 -106.1990 222° Southwest 452 520 40,000 214 Climbing FlightAware ADS-B
Sat 11:08:06 PM 37.9110 -106.2670 221° Southwest 457 526 40,000  Level FlightAware ADS-B
Sat 11:08:48 PM 37.8410 -106.3460 222° Southwest 451 519 40,000  Level FlightAware ADS-B
Sat 11:09:29 PM 37.7740 -106.4190 221° Southwest 448 516 40,000  Level FlightAware ADS-B
Sat 11:10:09 PM 37.7090 -106.4920 222° Southwest 448 516 40,000  Level FlightAware ADS-B
Sat 11:10:49 PM 37.6500 -106.5580 222° Southwest 449 517 40,000  Level FlightAware ADS-B
Sat 11:11:34 PM 37.5770 -106.6380 221° Southwest 451 519 40,000  Level FlightAware ADS-B
Sat 11:12:20 PM 37.5050 -106.7170 221° Southwest 452 520 40,000  Level FlightAware ADS-B
Sat 11:13:00 PM 37.4420 -106.7870 221° Southwest 452 520 40,000  Level FlightAware ADS-B
Sat 11:13:41 PM 37.3810 -106.8530 221° Southwest 450 518 40,000  Level FlightAware ADS-B
Sat 11:14:21 PM 37.3150 -106.9260 221° Southwest 447 514 40,000  Level FlightAware ADS-B
Sat 11:15:01 PM 37.2550 -106.9910 221° Southwest 447 514 40,000  Level FlightAware ADS-B
Sat 11:15:47 PM 37.1800 -107.0730 221° Southwest 446 513 40,000  Level FlightAware ADS-B
Sat 11:16:32 PM 37.1100 -107.1490 221° Southwest 445 512 40,000  Level FlightAware ADS-B
Sat 11:17:07 PM 37.0560 -107.2080 221° Southwest 445 512 40,000 -237 Level FlightAware ADS-B
Sat 11:17:48 PM 36.9960 -107.2720 220° Southwest 445 512 39,700 -767 Descending FlightAware ADS-B
Sat 11:18:33 PM 36.9280 -107.3460 221° Southwest 447 514 38,900 -977 Descending FlightAware ADS-B
Sat 11:19:14 PM 36.8570 -107.4220 221° Southwest 446 513 38,300 -628 Descending FlightAware ADS-B
Sat 11:19:59 PM 36.7890 -107.4950 221° Southwest 448 516 38,000 -212 Descending FlightAware ADS-B
Sat 11:20:39 PM 36.7260 -107.5630 221° Southwest 447 514 38,000  Level FlightAware ADS-B
Sat 11:21:24 PM 36.6550 -107.6390 221° Southwest 446 513 38,000  Level FlightAware ADS-B
Sat 11:22:05 PM 36.5910 -107.7070 220° Southwest 446 513 38,000  Level FlightAware ADS-B
Sat 11:22:55 PM 36.5210 -107.7810 220° Southwest 445 512 38,000  Level FlightAware ADS-B
Sat 11:23:43 PM 36.4560 -107.8480 220° Southwest 445 512 38,000  Level FlightAware ADS-B
Sat 11:24:26 PM 36.3680 -107.9430 221° Southwest 445 512 38,000  Level FlightAware ADS-B
Sat 11:25:07 PM 36.3120 -108.0030 221° Southwest 445 512 38,000  Level FlightAware ADS-B
Sat 11:25:45 PM 36.2610 -108.0560 220° Southwest 445 512 38,000  Level FlightAware ADS-B
Sat 11:26:33 PM 36.1960 -108.1220 219° Southwest 445 512 38,000  Level FlightAware ADS-B
Sat 11:27:10 PM 36.1470 -108.1740 221° Southwest 445 512 38,000  Level FlightAware ADS-B
Sat 11:27:56 PM 36.0850 -108.2380 220° Southwest 445 512 38,000  Level FlightAware ADS-B
Sat 11:28:32 PM 36.0370 -108.2880 220° Southwest 445 512 38,000  Level FlightAware ADS-B
Sat 11:29:20 PM 35.9730 -108.3550 220° Southwest 445 512 38,000  Level FlightAware ADS-B
Sat 11:30:02 PM 35.8420 -108.4950 221° Southwest 443 510 38,000  Level FlightAware ADS-B
Sat 11:30:38 PM 35.7850 -108.5540 220° Southwest 442 509 38,000  Level FlightAware ADS-B
Sat 11:31:20 PM 35.7240 -108.6160 220° Southwest 444 511 38,000  Level FlightAware ADS-B
Sat 11:32:06 PM 35.6490 -108.6950 221° Southwest 448 516 38,000  Level FlightAware ADS-B
Sat 11:32:44 PM 35.5950 -108.7510 220° Southwest 448 516 38,000  Level FlightAware ADS-B
Sat 11:33:32 PM 35.5300 -108.8180 220° Southwest 448 516 38,000  Level FlightAware ADS-B
Sat 11:34:08 PM 35.4820 -108.8680 220° Southwest 448 516 38,000  Level FlightAware ADS-B
Sat 11:35:10 PM 35.3920 -109.0410 237° Southwest 448 516 38,000  Level FlightAware ADS-B
Sat 11:35:50 PM 35.3380 -109.1200 230° Southwest 451 519 38,000  Level FlightAware ADS-B
Sat 11:36:34 PM 35.2810 -109.2070 231° Southwest 449 517 38,000  Level FlightAware ADS-B
Sat 11:37:14 PM 35.2270 -109.2870 230° Southwest 446 513 38,000  Level FlightAware ADS-B
Sat 11:37:58 PM 35.1700 -109.3710 230° Southwest 448 516 38,000 -357 Level FlightAware ADS-B
Sat 11:38:38 PM 35.1170 -109.4490 230° Southwest 457 526 37,500 -857 Descending FlightAware ADS-B
Sat 11:39:22 PM 35.0570 -109.5380 231° Southwest 465 535 36,800 -900 Descending FlightAware ADS-B
Sat 11:39:58 PM 35.0080 -109.6110 231° Southwest 467 537 36,300 -571 Descending FlightAware ADS-B
Sat 11:40:46 PM 34.9430 -109.7070 230° Southwest 461 531 36,000 -170 Descending FlightAware ADS-B
Sat 11:41:44 PM 34.8580 -109.8160 226° Southwest 460 529 36,000  Level FlightAware ADS-B
Sat 11:42:22 PM 34.7800 -109.8450 197° South 456 525 36,000  Level FlightAware ADS-B
Sat 11:43:08 PM 34.6960 -109.9010 209° Southwest 455 524 36,000  Level FlightAware ADS-B
Sat 11:43:47 PM 34.6330 -109.9670 221° Southwest 455 524 36,000  Level FlightAware ADS-B
Sat 11:44:29 PM 34.5690 -110.0390 223° Southwest 452 520 36,000  Level FlightAware ADS-B
Sat 11:45:11 PM 34.5040 -110.1110 222° Southwest 450 518 36,000 -429 Level FlightAware ADS-B
Sat 11:45:53 PM 34.4410 -110.1840 224° Southwest 448 516 35,400 -2,302 Descending FlightAware ADS-B
Sat 11:46:37 PM 34.3800 -110.2700 229° Southwest 465 535 32,700 -3,000 Descending FlightAware ADS-B
Sat 11:47:17 PM 34.3380 -110.3570 240° Southwest 457 526 31,200 -2,357 Descending FlightAware ADS-B
Sat 11:48:01 PM 34.2950 -110.4560 242° Southwest 445 512 29,400 -2,429 Descending FlightAware ADS-B
Sat 11:48:41 PM 34.2570 -110.5440 242° Southwest 439 505 27,800 -1,263 Descending FlightAware ADS-B
Sat 11:49:55 PM 34.1960 -110.6850 242° Southwest 437 503 27,000 -2,304 Descending FlightAware ADS-B
Sat 11:50:33 PM 34.1540 -110.7820 242° Southwest 424 488 23,500 -3,805 Descending FlightAware ADS-B
Sat 11:51:17 PM 34.1140 -110.8740 242° Southwest 420 483 21,800 -2,127 Descending FlightAware ADS-B
Sat 11:51:52 PM 34.0900 -110.9300 243° Southwest 418 481 20,700 -2,265 Descending FlightAware ADS-B
Sat 11:52:55 PM 34.0260 -111.0750 242° Southwest 405 466 18,100 -2,412 Descending FlightAware ADS-B
Sat 11:53:34 PM 33.9930 -111.1510 242° Southwest 400 460 16,600 -2,182 Descending FlightAware ADS-B
Sat 11:54:12 PM 33.9650 -111.2140 242° Southwest 393 452 15,300 -2,100 Descending FlightAware ADS-B
Sat 11:54:54 PM 33.9300 -111.2940 242° Southwest 382 440 13,800 -1,835 Descending FlightAware ADS-B
Sat 11:55:37 PM 33.8960 -111.3700 242° Southwest 363 418 12,700 -1,397 Descending FlightAware ADS-B
Sat 11:56:07 PM 33.8670 -111.4160 233° Southwest 341 392 12,100 -1,268 Descending FlightAware ADS-B
Sat 11:56:48 PM 33.8130 -111.4630 216° Southwest 324 373 11,200 -1,172 Descending FlightAware ADS-B
Sat 11:57:34 PM 33.7600 -111.5080 215° Southwest 303 349 10,400 -1,079 Descending FlightAware ADS-B
Sat 11:58:17 PM 33.7140 -111.5470 215° Southwest 290 334 9,600 -1,108 Descending FlightAware ADS-B
Sat 11:58:39 PM 33.6900 -111.5680 216° Southwest 285 328 9,200 -824 Descending FlightAware ADS-B
Sat 11:59:08 PM 33.6610 -111.5930 216° Southwest 266 306 8,900 -621 Descending FlightAware ADS-B
Sat 11:59:37 PM 33.6320 -111.6180 216° Southwest 253 291 8,600 -915 Descending FlightAware ADS-B
Sun 12:00:07 AM 33.6030 -111.6420 215° Southwest 250 288 8,000 -1,241 Descending FlightAware ADS-B
Sun 12:00:35 AM 33.5750 -111.6650 214° Southwest 250 288 7,400 -1,200 Descending FlightAware ADS-B
Sun 12:01:02 AM 33.5520 -111.6850 216° Southwest 248 285 6,900 -964 Descending FlightAware ADS-B
Sun 12:01:31 AM 33.5250 -111.7070 214° Southwest 236 272 6,500 -1,019 Descending FlightAware ADS-B
Sun 12:01:55 AM 33.5050 -111.7280 221° Southwest 227 261 6,000 -1,610 Descending FlightAware ADS-B
Sun 12:02:12 AM 33.4960 -111.7470 240° Southwest 228 262 5,400 -1,787 Descending FlightAware ADS-B
Sun 12:02:42 AM 33.4830 -111.7800 245° Southwest 229 264 4,600 -1,294 Descending FlightAware ADS-B
Sun 12:03:03 AM 33.4730 -111.8030 242° Southwest 219 252 4,300 -1,000 Descending FlightAware ADS-B
Sun 12:03:36 AM 33.4580 -111.8390 243° Southwest 205 236 3,700 -968 Descending FlightAware ADS-B
Sun 12:04:05 AM 33.4460 -111.8670 243° Southwest 193 222 3,300 -915 Descending FlightAware ADS-B
Sun 12:04:35 AM 33.4400 -111.8950 256° West 171 197 2,800 -947 Descending FlightAware ADS-B
Sun 12:05:02 AM 33.4410 -111.9240 272° West 144 166 2,400 -764 Descending FlightAware ADS-B
Sun 12:05:30 AM 33.4410 -111.9450 270° West 132 152 2,100 -696 Descending FlightAware ADS-B
Sun 12:06:11 AM 33.4410 -111.9760 270° West 139 160 1,600 -667 Descending FlightAware ADS-B
Sun 12:06:33 AM 33.4410 -111.9930 270° West 145 167 1,400 -240 Descending FlightAware ADS-B
Sun 12:07:01 AM 33.4410 -112.0120 270° West 145 167 1,400  Level FlightAware ADS-B
Sun 12:14:00 AM 33.4333 -112.0000 90° East  Level FlightAware Approximate

Login

Don't have an account? Register now (free) for customized features, flight alerts, and more!